sensor_id;sensor_type;location;lat;lon;timestamp;pressure;altitude;pressure_sealevel;temperature;humidity
59194;BME280;44967;48.598;15.650;2023-03-05T00:01:28;98142.97;;;3.89;58.04
59194;BME280;44967;48.598;15.650;2023-03-05T00:03:55;98138.56;;;3.97;57.67
59194;BME280;44967;48.598;15.650;2023-03-05T00:06:23;98143.84;;;3.91;57.52
59194;BME280;44967;48.598;15.650;2023-03-05T00:08:50;98135.06;;;3.98;57.49
59194;BME280;44967;48.598;15.650;2023-03-05T00:11:18;98142.91;;;3.96;56.79
59194;BME280;44967;48.598;15.650;2023-03-05T00:13:44;98146.44;;;3.92;57.24
59194;BME280;44967;48.598;15.650;2023-03-05T00:16:12;98146.41;;;3.95;57.15
59194;BME280;44967;48.598;15.650;2023-03-05T00:18:38;98149.91;;;3.94;57.31
59194;BME280;44967;48.598;15.650;2023-03-05T00:21:16;98149.88;;;3.97;56.64
59194;BME280;44967;48.598;15.650;2023-03-05T00:23:42;98145.63;;;3.86;57.70
59194;BME280;44967;48.598;15.650;2023-03-05T00:26:09;98147.34;;;3.84;57.21
59194;BME280;44967;48.598;15.650;2023-03-05T00:28:34;98143.84;;;3.88;56.82
59194;BME280;44967;48.598;15.650;2023-03-05T00:31:00;98144.66;;;3.99;56.76
59194;BME280;44967;48.598;15.650;2023-03-05T00:33:26;98136.88;;;3.90;57.26
59194;BME280;44967;48.598;15.650;2023-03-05T00:35:52;98130.88;;;3.72;56.90
59194;BME280;44967;48.598;15.650;2023-03-05T00:38:19;98135.19;;;3.83;57.52
59194;BME280;44967;48.598;15.650;2023-03-05T00:40:44;98121.31;;;3.68;58.46
59194;BME280;44967;48.598;15.650;2023-03-05T00:43:10;98129.97;;;3.76;57.80
59194;BME280;44967;48.598;15.650;2023-03-05T00:45:36;98129.97;;;3.76;57.16
59194;BME280;44967;48.598;15.650;2023-03-05T00:48:02;98119.56;;;3.67;57.74
59194;BME280;44967;48.598;15.650;2023-03-05T00:50:28;98123.09;;;3.66;57.74
59194;BME280;44967;48.598;15.650;2023-03-05T00:52:54;98117.88;;;3.63;57.88
59194;BME280;44967;48.598;15.650;2023-03-05T00:55:20;98126.59;;;3.62;57.54
59194;BME280;44967;48.598;15.650;2023-03-05T00:57:46;98117.88;;;3.66;57.31
59194;BME280;44967;48.598;15.650;2023-03-05T01:00:13;98117.00;;;3.64;57.46
59194;BME280;44967;48.598;15.650;2023-03-05T01:02:39;98118.72;;;3.70;57.35
59194;BME280;44967;48.598;15.650;2023-03-05T01:05:05;98123.19;;;3.47;58.71
59194;BME280;44967;48.598;15.650;2023-03-05T01:07:31;98121.47;;;3.43;58.14
59194;BME280;44967;48.598;15.650;2023-03-05T01:09:56;98116.22;;;3.44;59.16
59194;BME280;44967;48.598;15.650;2023-03-05T01:12:22;98117.13;;;3.42;60.03
59194;BME280;44967;48.598;15.650;2023-03-05T01:14:48;98114.50;;;3.40;59.65
59194;BME280;44967;48.598;15.650;2023-03-05T01:17:13;98106.66;;;3.46;58.78
59194;BME280;44967;48.598;15.650;2023-03-05T01:19:39;98109.28;;;3.46;59.68
59194;BME280;44967;48.598;15.650;2023-03-05T01:22:04;98108.44;;;3.38;60.16
59194;BME280;44967;48.598;15.650;2023-03-05T01:24:31;98091.91;;;3.36;59.57
59194;BME280;44967;48.598;15.650;2023-03-05T01:26:57;98092.84;;;3.27;60.20
59194;BME280;44967;48.598;15.650;2023-03-05T01:29:23;98088.44;;;3.36;60.10
59194;BME280;44967;48.598;15.650;2023-03-05T01:31:49;98087.53;;;3.37;59.96
59194;BME280;44967;48.598;15.650;2023-03-05T01:34:14;98094.47;;;3.45;59.99
59194;BME280;44967;48.598;15.650;2023-03-05T01:36:41;98092.78;;;3.33;60.69
59194;BME280;44967;48.598;15.650;2023-03-05T01:39:07;98082.38;;;3.26;60.74
59194;BME280;44967;48.598;15.650;2023-03-05T01:41:33;98085.81;;;3.32;59.87
59194;BME280;44967;48.598;15.650;2023-03-05T01:43:59;98082.38;;;3.29;60.61
59194;BME280;44967;48.598;15.650;2023-03-05T01:49:29;98085.03;;;3.23;60.92
59194;BME280;44967;48.598;15.650;2023-03-05T01:54:23;98074.53;;;3.29;60.09
59194;BME280;44967;48.598;15.650;2023-03-05T01:56:52;98075.44;;;3.20;61.10
59194;BME280;44967;48.598;15.650;2023-03-05T01:59:22;98072.91;;;3.10;60.94
59194;BME280;44967;48.598;15.650;2023-03-05T02:01:52;98070.22;;;3.22;61.23
59194;BME280;44967;48.598;15.650;2023-03-05T02:04:20;98065.91;;;3.18;61.22
59194;BME280;44967;48.598;15.650;2023-03-05T02:06:48;98065.91;;;3.15;61.72
59194;BME280;44967;48.598;15.650;2023-03-05T02:09:15;98070.19;;;3.29;61.35
59194;BME280;44967;48.598;15.650;2023-03-05T02:11:41;98068.47;;;3.27;61.33
59194;BME280;44967;48.598;15.650;2023-03-05T02:14:08;98061.53;;;3.23;61.26
59194;BME280;44967;48.598;15.650;2023-03-05T02:16:35;98071.91;;;3.32;60.92
59194;BME280;44967;48.598;15.650;2023-03-05T02:19:04;98056.28;;;3.27;62.38
59194;BME280;44967;48.598;15.650;2023-03-05T02:21:43;98058.88;;;3.29;61.13
59194;BME280;44967;48.598;15.650;2023-03-05T02:24:14;98061.53;;;3.17;61.68
59194;BME280;44967;48.598;15.650;2023-03-05T02:26:41;98062.41;;;3.23;61.95
59194;BME280;44967;48.598;15.650;2023-03-05T02:29:13;98050.19;;;3.25;62.65
59194;BME280;44967;48.598;15.650;2023-03-05T02:31:44;98061.53;;;3.18;62.75
59194;BME280;44967;48.598;15.650;2023-03-05T02:34:13;98052.88;;;3.12;62.87
59194;BME280;44967;48.598;15.650;2023-03-05T02:36:39;98048.50;;;3.14;62.59
59194;BME280;44967;48.598;15.650;2023-03-05T02:39:04;98051.09;;;3.17;62.38
59194;BME280;44967;48.598;15.650;2023-03-05T02:41:30;98044.94;;;3.30;62.63
59194;BME280;44967;48.598;15.650;2023-03-05T02:43:56;98060.69;;;3.13;63.46
59194;BME280;44967;48.598;15.650;2023-03-05T02:46:22;98052.00;;;3.10;63.61
59194;BME280;44967;48.598;15.650;2023-03-05T02:48:47;98058.13;;;3.06;64.31
59194;BME280;44967;48.598;15.650;2023-03-05T02:51:14;98056.31;;;3.17;63.60
59194;BME280;44967;48.598;15.650;2023-03-05T02:53:40;98056.38;;;3.08;64.99
59194;BME280;44967;48.598;15.650;2023-03-05T02:56:06;98053.78;;;3.08;64.87
59194;BME280;44967;48.598;15.650;2023-03-05T02:58:32;98052.00;;;3.10;66.00
59194;BME280;44967;48.598;15.650;2023-03-05T03:00:57;98055.44;;;3.18;64.79
59194;BME280;44967;48.598;15.650;2023-03-05T03:03:23;98052.78;;;3.31;64.88
59194;BME280;44967;48.598;15.650;2023-03-05T03:05:49;98052.81;;;3.21;64.99
59194;BME280;44967;48.598;15.650;2023-03-05T03:08:14;98045.94;;;3.08;64.90
59194;BME280;44967;48.598;15.650;2023-03-05T03:10:40;98050.28;;;3.12;65.04
59194;BME280;44967;48.598;15.650;2023-03-05T03:13:06;98041.53;;;3.17;66.32
59194;BME280;44967;48.598;15.650;2023-03-05T03:15:31;98029.38;;;3.13;64.75
59194;BME280;44967;48.598;15.650;2023-03-05T03:17:57;98038.06;;;3.14;65.08
59194;BME280;44967;48.598;15.650;2023-03-05T03:20:23;98038.13;;;3.03;65.13
59194;BME280;44967;48.598;15.650;2023-03-05T03:22:49;98026.81;;;3.01;65.19
59194;BME280;44967;48.598;15.650;2023-03-05T03:25:17;98031.94;;;3.21;63.76
59194;BME280;44967;48.598;15.650;2023-03-05T03:27:43;98038.06;;;3.15;64.88
59194;BME280;44967;48.598;15.650;2023-03-05T03:30:10;98024.16;;;3.10;64.67
59194;BME280;44967;48.598;15.650;2023-03-05T03:32:36;98030.22;;;3.14;63.73
59194;BME280;44967;48.598;15.650;2023-03-05T03:35:02;98028.53;;;3.07;64.43
59194;BME280;44967;48.598;15.650;2023-03-05T03:37:28;98021.50;;;3.16;63.49
59194;BME280;44967;48.598;15.650;2023-03-05T03:39:54;98016.25;;;3.21;63.84
59194;BME280;44967;48.598;15.650;2023-03-05T03:42:21;98017.19;;;3.15;63.56
59194;BME280;44967;48.598;15.650;2023-03-05T03:44:48;98022.41;;;3.15;62.75
59194;BME280;44967;48.598;15.650;2023-03-05T03:47:14;98016.28;;;3.18;63.91
59194;BME280;44967;48.598;15.650;2023-03-05T03:49:40;98017.97;;;3.25;63.60
59194;BME280;44967;48.598;15.650;2023-03-05T03:52:06;98012.84;;;3.13;63.07
59194;BME280;44967;48.598;15.650;2023-03-05T03:54:32;98010.22;;;3.16;63.82
59194;BME280;44967;48.598;15.650;2023-03-05T03:56:57;98007.63;;;3.10;63.27
59194;BME280;44967;48.598;15.650;2023-03-05T03:59:23;98009.38;;;3.09;63.66
59194;BME280;44967;48.598;15.650;2023-03-05T04:01:49;97996.25;;;3.21;63.26
59194;BME280;44967;48.598;15.650;2023-03-05T04:04:14;97991.06;;;3.18;63.02
59194;BME280;44967;48.598;15.650;2023-03-05T04:06:40;97982.31;;;3.21;63.33
59194;BME280;44967;48.598;15.650;2023-03-05T04:09:07;97975.47;;;3.05;63.59
59194;BME280;44967;48.598;15.650;2023-03-05T04:11:34;97993.72;;;3.09;63.44
59194;BME280;44967;48.598;15.650;2023-03-05T04:14:00;97980.63;;;3.14;63.04
59194;BME280;44967;48.598;15.650;2023-03-05T04:16:26;97978.03;;;3.15;63.53
59194;BME280;44967;48.598;15.650;2023-03-05T04:18:51;97974.53;;;3.19;62.84
59194;BME280;44967;48.598;15.650;2023-03-05T04:21:17;97978.88;;;3.19;62.94
59194;BME280;44967;48.598;15.650;2023-03-05T04:23:44;97980.56;;;3.26;62.92
59194;BME280;44967;48.598;15.650;2023-03-05T04:26:09;97974.56;;;3.09;62.48
59194;BME280;44967;48.598;15.650;2023-03-05T04:28:35;97981.59;;;3.02;62.77
59194;BME280;44967;48.598;15.650;2023-03-05T04:31:02;97976.34;;;3.07;62.55
59194;BME280;44967;48.598;15.650;2023-03-05T04:33:31;97970.16;;;3.21;61.66
59194;BME280;44967;48.598;15.650;2023-03-05T04:35:58;97967.56;;;3.17;62.69
59194;BME280;44967;48.598;15.650;2023-03-05T04:38:24;97964.97;;;3.15;62.20
59194;BME280;44967;48.598;15.650;2023-03-05T04:40:49;97953.56;;;3.28;61.93
59194;BME280;44967;48.598;15.650;2023-03-05T04:43:15;97960.50;;;3.36;61.37
59194;BME280;44967;48.598;15.650;2023-03-05T04:45:42;97948.31;;;3.28;61.31
59194;BME280;44967;48.598;15.650;2023-03-05T04:48:10;97959.69;;;3.23;61.44
59194;BME280;44967;48.598;15.650;2023-03-05T04:50:37;97967.50;;;3.27;62.03
59194;BME280;44967;48.598;15.650;2023-03-05T04:53:03;97966.63;;;3.25;61.78
59194;BME280;44967;48.598;15.650;2023-03-05T04:55:29;97965.78;;;3.23;62.34
59194;BME280;44967;48.598;15.650;2023-03-05T04:57:55;97968.25;;;3.43;61.81
59194;BME280;44967;48.598;15.650;2023-03-05T05:00:21;97964.84;;;3.32;61.22
59194;BME280;44967;48.598;15.650;2023-03-05T05:02:48;97958.72;;;3.38;61.00
59194;BME280;44967;48.598;15.650;2023-03-05T05:05:17;97958.75;;;3.33;61.50
59194;BME280;44967;48.598;15.650;2023-03-05T05:07:43;97953.50;;;3.36;61.41
59194;BME280;44967;48.598;15.650;2023-03-05T05:10:11;97951.75;;;3.37;61.15
59194;BME280;44967;48.598;15.650;2023-03-05T05:12:37;97952.59;;;3.43;61.14
59194;BME280;44967;48.598;15.650;2023-03-05T05:15:05;97951.78;;;3.35;61.61
59194;BME280;44967;48.598;15.650;2023-03-05T05:17:32;97941.34;;;3.35;61.29
59194;BME280;44967;48.598;15.650;2023-03-05T05:20:02;97947.44;;;3.32;61.37
59194;BME280;44967;48.598;15.650;2023-03-05T05:22:31;97944.94;;;3.17;61.16
59194;BME280;44967;48.598;15.650;2023-03-05T05:24:57;97943.91;;;3.37;61.20
59194;BME280;44967;48.598;15.650;2023-03-05T05:27:23;97945.81;;;3.19;61.38
59194;BME280;44967;48.598;15.650;2023-03-05T05:29:48;97948.44;;;3.13;61.67
59194;BME280;44967;48.598;15.650;2023-03-05T05:32:18;97952.75;;;3.23;61.74
59194;BME280;44967;48.598;15.650;2023-03-05T05:34:44;97952.66;;;3.34;61.27
59194;BME280;44967;48.598;15.650;2023-03-05T05:37:10;97945.78;;;3.21;61.63
59194;BME280;44967;48.598;15.650;2023-03-05T05:39:36;97952.75;;;3.22;61.71
59194;BME280;44967;48.598;15.650;2023-03-05T05:42:02;97951.03;;;3.18;61.73
59194;BME280;44967;48.598;15.650;2023-03-05T05:44:27;97951.88;;;3.21;62.59
59194;BME280;44967;48.598;15.650;2023-03-05T05:46:53;97957.97;;;3.23;62.05
59194;BME280;44967;48.598;15.650;2023-03-05T05:49:19;97954.41;;;3.29;61.42
59194;BME280;44967;48.598;15.650;2023-03-05T05:51:45;97954.41;;;3.32;61.03
59194;BME280;44967;48.598;15.650;2023-03-05T05:54:12;97970.09;;;3.29;61.48
59194;BME280;44967;48.598;15.650;2023-03-05T05:56:38;97964.88;;;3.30;61.05
59194;BME280;44967;48.598;15.650;2023-03-05T05:59:04;97952.66;;;3.34;61.18
59194;BME280;44967;48.598;15.650;2023-03-05T06:01:31;97964.88;;;3.29;61.52
59194;BME280;44967;48.598;15.650;2023-03-05T06:03:58;97957.91;;;3.29;60.73
59194;BME280;44967;48.598;15.650;2023-03-05T06:06:26;97958.78;;;3.30;61.25
59194;BME280;44967;48.598;15.650;2023-03-05T06:08:53;97964.84;;;3.33;61.15
59194;BME280;44967;48.598;15.650;2023-03-05T06:11:19;97956.00;;;3.48;59.95
59194;BME280;44967;48.598;15.650;2023-03-05T06:13:46;97956.97;;;3.38;60.60
59194;BME280;44967;48.598;15.650;2023-03-05T06:16:15;97949.16;;;3.35;61.31
59194;BME280;44967;48.598;15.650;2023-03-05T06:18:41;97950.75;;;3.53;60.49
59194;BME280;44967;48.598;15.650;2023-03-05T06:21:11;97960.47;;;3.37;61.13
59194;BME280;44967;48.598;15.650;2023-03-05T06:23:37;97954.31;;;3.46;60.82
59194;BME280;44967;48.598;15.650;2023-03-05T06:26:04;97953.44;;;3.45;60.10
59194;BME280;44967;48.598;15.650;2023-03-05T06:28:31;97956.91;;;3.47;59.67
59194;BME280;44967;48.598;15.650;2023-03-05T06:33:27;97938.56;;;3.52;60.84
59194;BME280;44967;48.598;15.650;2023-03-05T06:35:53;97940.38;;;3.47;60.45
59194;BME280;44967;48.598;15.650;2023-03-05T06:38:18;97945.66;;;3.39;60.58
59194;BME280;44967;48.598;15.650;2023-03-05T06:40:44;97944.69;;;3.49;60.11
59194;BME280;44967;48.598;15.650;2023-03-05T06:43:10;97948.19;;;3.51;59.91
59194;BME280;44967;48.598;15.650;2023-03-05T06:45:36;97954.38;;;3.38;60.94
59194;BME280;44967;48.598;15.650;2023-03-05T06:48:02;97961.22;;;3.48;60.48
59194;BME280;44967;48.598;15.650;2023-03-05T06:50:28;97954.13;;;3.64;59.55
59194;BME280;44967;48.598;15.650;2023-03-05T06:52:54;97957.59;;;3.67;58.73
59194;BME280;44967;48.598;15.650;2023-03-05T06:55:19;97955.91;;;3.62;59.61
59194;BME280;44967;48.598;15.650;2023-03-05T06:57:45;97954.16;;;3.62;59.62
59194;BME280;44967;48.598;15.650;2023-03-05T07:00:12;97958.50;;;3.65;59.72
59194;BME280;44967;48.598;15.650;2023-03-05T07:02:37;97959.47;;;3.55;59.16
59194;BME280;44967;48.598;15.650;2023-03-05T07:05:05;97967.22;;;3.61;59.08
59194;BME280;44967;48.598;15.650;2023-03-05T07:07:32;97967.25;;;3.56;59.90
59194;BME280;44967;48.598;15.650;2023-03-05T07:09:57;97970.78;;;3.52;59.80
59194;BME280;44967;48.598;15.650;2023-03-05T07:12:23;97973.38;;;3.52;60.14
59194;BME280;44967;48.598;15.650;2023-03-05T07:14:49;97969.97;;;3.46;59.96
59194;BME280;44967;48.598;15.650;2023-03-05T07:17:15;97963.84;;;3.48;60.20
59194;BME280;44967;48.598;15.650;2023-03-05T07:19:41;97969.91;;;3.53;60.26
59194;BME280;44967;48.598;15.650;2023-03-05T07:22:07;97970.66;;;3.69;59.37
59194;BME280;44967;48.598;15.650;2023-03-05T07:24:33;97962.81;;;3.67;59.92
59194;BME280;44967;48.598;15.650;2023-03-05T07:26:59;97964.47;;;3.76;58.96
59194;BME280;44967;48.598;15.650;2023-03-05T07:29:25;97970.66;;;3.69;59.47
59194;BME280;44967;48.598;15.650;2023-03-05T07:31:52;97973.16;;;3.79;58.62
59194;BME280;44967;48.598;15.650;2023-03-05T07:34:18;97966.28;;;3.71;58.93
59194;BME280;44967;48.598;15.650;2023-03-05T07:36:44;97967.13;;;3.73;59.27
59194;BME280;44967;48.598;15.650;2023-03-05T07:39:11;97970.47;;;3.89;59.26
59194;BME280;44967;48.598;15.650;2023-03-05T07:41:37;97974.88;;;3.84;59.19
59194;BME280;44967;48.598;15.650;2023-03-05T07:44:03;97965.34;;;3.78;59.41
59194;BME280;44967;48.598;15.650;2023-03-05T07:46:31;97972.25;;;3.87;59.38
59194;BME280;44967;48.598;15.650;2023-03-05T07:48:58;97967.94;;;3.83;59.90
59194;BME280;44967;48.598;15.650;2023-03-05T07:51:26;97967.91;;;3.84;59.27
59194;BME280;44967;48.598;15.650;2023-03-05T07:53:53;97966.13;;;3.89;59.46
59194;BME280;44967;48.598;15.650;2023-03-05T07:56:33;97970.53;;;3.83;59.73
59194;BME280;44967;48.598;15.650;2023-03-05T07:59:11;97965.25;;;3.90;58.93
59194;BME280;44967;48.598;15.650;2023-03-05T08:01:37;97964.38;;;3.90;59.38
59194;BME280;44967;48.598;15.650;2023-03-05T08:04:05;97960.84;;;3.92;57.81
59194;BME280;44967;48.598;15.650;2023-03-05T08:06:32;97964.41;;;3.84;59.32
59194;BME280;44967;48.598;15.650;2023-03-05T08:08:58;97965.19;;;3.93;58.89
59194;BME280;44967;48.598;15.650;2023-03-05T08:11:25;97966.06;;;3.94;58.73
59194;BME280;44967;48.598;15.650;2023-03-05T08:13:52;97958.19;;;3.97;58.55
59194;BME280;44967;48.598;15.650;2023-03-05T08:16:20;97957.38;;;3.92;58.18
59194;BME280;44967;48.598;15.650;2023-03-05T08:18:46;97954.78;;;3.89;58.97
59194;BME280;44967;48.598;15.650;2023-03-05T08:21:38;97952.84;;;4.07;57.91
59194;BME280;44967;48.598;15.650;2023-03-05T08:24:06;97957.19;;;4.10;58.09
59194;BME280;44967;48.598;15.650;2023-03-05T08:26:34;97959.03;;;4.02;58.50
59194;BME280;44967;48.598;15.650;2023-03-05T08:29:01;97947.56;;;4.12;57.83
59194;BME280;44967;48.598;15.650;2023-03-05T08:31:28;97948.44;;;4.11;57.72
59194;BME280;44967;48.598;15.650;2023-03-05T08:33:56;97950.16;;;4.18;57.97
59194;BME280;44967;48.598;15.650;2023-03-05T08:36:22;97951.03;;;4.15;58.04
59194;BME280;44967;48.598;15.650;2023-03-05T08:38:48;97944.69;;;4.38;57.86
59194;BME280;44967;48.598;15.650;2023-03-05T08:41:15;97942.31;;;4.16;57.39
59194;BME280;44967;48.598;15.650;2023-03-05T08:43:42;97944.03;;;4.16;57.70
59194;BME280;44967;48.598;15.650;2023-03-05T08:46:09;97949.16;;;4.28;57.26
59194;BME280;44967;48.598;15.650;2023-03-05T08:48:35;97939.47;;;4.36;57.16
59194;BME280;44967;48.598;15.650;2023-03-05T08:51:21;97939.31;;;4.48;57.20
59194;BME280;44967;48.598;15.650;2023-03-05T08:53:51;97942.66;;;4.59;56.50
59194;BME280;44967;48.598;15.650;2023-03-05T08:56:17;97940.00;;;4.62;56.08
59194;BME280;44967;48.598;15.650;2023-03-05T08:58:43;97937.28;;;4.71;56.25
59194;BME280;44967;48.598;15.650;2023-03-05T09:01:11;97941.69;;;4.68;56.83
59194;BME280;44967;48.598;15.650;2023-03-05T09:03:37;97933.88;;;4.63;56.46
59194;BME280;44967;48.598;15.650;2023-03-05T09:06:05;97936.34;;;4.75;55.88
59194;BME280;44967;48.598;15.650;2023-03-05T09:08:31;97934.69;;;4.68;55.86
59194;BME280;44967;48.598;15.650;2023-03-05T09:11:00;97930.41;;;4.64;55.91
59194;BME280;44967;48.598;15.650;2023-03-05T09:13:26;97932.19;;;4.61;55.88
59194;BME280;44967;48.598;15.650;2023-03-05T09:15:57;97927.72;;;4.67;55.54
59194;BME280;44967;48.598;15.650;2023-03-05T09:18:23;97936.53;;;4.62;55.56
59194;BME280;44967;48.598;15.650;2023-03-05T09:20:48;97939.06;;;4.66;55.81
59194;BME280;44967;48.598;15.650;2023-03-05T09:23:14;97929.63;;;4.58;55.78
59194;BME280;44967;48.598;15.650;2023-03-05T09:25:40;97925.88;;;4.75;55.08
59194;BME280;44967;48.598;15.650;2023-03-05T09:28:07;97920.75;;;4.69;55.69
59194;BME280;44967;48.598;15.650;2023-03-05T09:30:33;97932.25;;;4.55;54.90
59194;BME280;44967;48.598;15.650;2023-03-05T09:33:00;97925.31;;;4.54;54.53
59194;BME280;44967;48.598;15.650;2023-03-05T09:35:26;97923.50;;;4.57;54.79
59194;BME280;44967;48.598;15.650;2023-03-05T09:37:52;97925.41;;;4.45;54.03
59194;BME280;44967;48.598;15.650;2023-03-05T09:40:19;97919.25;;;4.49;55.04
59194;BME280;44967;48.598;15.650;2023-03-05T09:45:30;97926.13;;;4.57;53.79
59194;BME280;44967;48.598;15.650;2023-03-05T09:50:47;97921.88;;;4.47;53.66
59194;BME280;44967;48.598;15.650;2023-03-05T09:55:56;97920.22;;;4.42;54.89
59194;BME280;44967;48.598;15.650;2023-03-05T09:58:33;97924.50;;;4.49;54.17
59194;BME280;44967;48.598;15.650;2023-03-05T10:01:07;97931.38;;;4.54;54.61
59194;BME280;44967;48.598;15.650;2023-03-05T10:06:19;97921.81;;;4.53;54.57
59194;BME280;44967;48.598;15.650;2023-03-05T10:11:41;97923.41;;;4.63;54.13
59194;BME280;44967;48.598;15.650;2023-03-05T10:14:14;97912.91;;;4.66;54.21
59194;BME280;44967;48.598;15.650;2023-03-05T10:22:32;97911.69;;;4.92;54.19
59194;BME280;44967;48.598;15.650;2023-03-05T10:27:54;97898.50;;;4.98;53.16
59194;BME280;44967;48.598;15.650;2023-03-05T10:30:32;97904.47;;;5.07;52.19
59194;BME280;44967;48.598;15.650;2023-03-05T10:33:14;97897.69;;;4.94;51.07
59194;BME280;44967;48.598;15.650;2023-03-05T10:42:10;97891.13;;;5.24;51.25
59194;BME280;44967;48.598;15.650;2023-03-05T10:45:31;97889.00;;;5.47;51.58
59194;BME280;44967;48.598;15.650;2023-03-05T10:47:40;97888.41;;;5.30;52.27
59194;BME280;44967;48.598;15.650;2023-03-05T10:50:21;97890.69;;;4.96;54.16
59194;BME280;44967;48.598;15.650;2023-03-05T10:53:49;97895.50;;;4.64;54.78
59194;BME280;44967;48.598;15.650;2023-03-05T10:56:20;97900.63;;;4.71;55.81
59194;BME280;44967;48.598;15.650;2023-03-05T10:58:46;97893.16;;;4.44;55.49
59194;BME280;44967;48.598;15.650;2023-03-05T11:03:53;97897.56;;;4.39;55.36
59194;BME280;44967;48.598;15.650;2023-03-05T11:06:38;97894.22;;;4.28;54.94
59194;BME280;44967;48.598;15.650;2023-03-05T11:09:22;97895.91;;;4.32;55.40
59194;BME280;44967;48.598;15.650;2023-03-05T11:12:19;97894.06;;;4.40;54.68
59194;BME280;44967;48.598;15.650;2023-03-05T11:17:41;97886.47;;;4.19;55.03
59194;BME280;44967;48.598;15.650;2023-03-05T11:23:19;97885.69;;;4.14;56.04
59194;BME280;44967;48.598;15.650;2023-03-05T11:26:18;97887.56;;;4.01;55.22
59194;BME280;44967;48.598;15.650;2023-03-05T11:36:24;97876.56;;;4.45;54.61
59194;BME280;44967;48.598;15.650;2023-03-05T11:38:56;97867.03;;;4.40;54.87
59194;BME280;44967;48.598;15.650;2023-03-05T11:41:30;97874.94;;;4.35;54.60
59194;BME280;44967;48.598;15.650;2023-03-05T11:43:58;97877.59;;;4.34;54.42
59194;BME280;44967;48.598;15.650;2023-03-05T11:46:29;97868.78;;;4.41;53.51
59194;BME280;44967;48.598;15.650;2023-03-05T11:48:57;97862.19;;;4.75;53.44
59194;BME280;44967;48.598;15.650;2023-03-05T11:51:40;97854.50;;;4.66;53.80
59194;BME280;44967;48.598;15.650;2023-03-05T11:54:14;97858.00;;;4.63;53.30
59194;BME280;44967;48.598;15.650;2023-03-05T11:56:42;97857.75;;;4.80;54.31
59194;BME280;44967;48.598;15.650;2023-03-05T11:59:21;97845.03;;;4.56;53.71
59194;BME280;44967;48.598;15.650;2023-03-05T12:01:51;97851.78;;;4.72;52.81
59194;BME280;44967;48.598;15.650;2023-03-05T12:04:19;97839.56;;;4.71;53.36
59194;BME280;44967;48.598;15.650;2023-03-05T12:07:00;97847.34;;;4.77;53.86
59194;BME280;44967;48.598;15.650;2023-03-05T12:09:38;97839.63;;;4.69;53.47
59194;BME280;44967;48.598;15.650;2023-03-05T12:21:02;97838.75;;;4.67;52.38
59194;BME280;44967;48.598;15.650;2023-03-05T12:23:50;97828.53;;;4.51;52.73
59194;BME280;44967;48.598;15.650;2023-03-05T12:26:16;97834.44;;;4.63;52.95
59194;BME280;44967;48.598;15.650;2023-03-05T12:31:33;97820.31;;;4.77;53.05
59194;BME280;44967;48.598;15.650;2023-03-05T12:37:13;97811.88;;;4.56;52.76
59194;BME280;44967;48.598;15.650;2023-03-05T12:52:57;97795.88;;;4.78;51.77
59194;BME280;44967;48.598;15.650;2023-03-05T12:55:53;97791.53;;;4.77;53.12
59194;BME280;44967;48.598;15.650;2023-03-05T13:03:44;97791.56;;;4.73;51.37
59194;BME280;44967;48.598;15.650;2023-03-05T13:06:31;97783.31;;;4.98;51.98
59194;BME280;44967;48.598;15.650;2023-03-05T13:09:07;97781.41;;;5.06;51.53
59194;BME280;44967;48.598;15.650;2023-03-05T13:11:37;97779.84;;;4.96;51.23
59194;BME280;44967;48.598;15.650;2023-03-05T13:14:03;97772.06;;;4.93;51.81
59194;BME280;44967;48.598;15.650;2023-03-05T13:16:52;97771.72;;;5.12;51.40
59194;BME280;44967;48.598;15.650;2023-03-05T13:19:18;97769.72;;;5.27;51.54
59194;BME280;44967;48.598;15.650;2023-03-05T13:21:44;97769.84;;;5.20;51.66
59194;BME280;44967;48.598;15.650;2023-03-05T13:24:18;97763.66;;;5.23;50.69
59194;BME280;44967;48.598;15.650;2023-03-05T13:26:44;97764.59;;;5.20;50.47
59194;BME280;44967;48.598;15.650;2023-03-05T13:29:15;97762.03;;;5.17;51.47
59194;BME280;44967;48.598;15.650;2023-03-05T13:32:01;97761.94;;;5.22;50.67
59194;BME280;44967;48.598;15.650;2023-03-05T13:34:31;97752.19;;;5.30;50.49
59194;BME280;44967;48.598;15.650;2023-03-05T13:37:04;97754.41;;;5.04;50.76
59194;BME280;44967;48.598;15.650;2023-03-05T13:39:34;97748.56;;;4.90;50.65
59194;BME280;44967;48.598;15.650;2023-03-05T13:42:15;97743.94;;;5.05;49.59
59194;BME280;44967;48.598;15.650;2023-03-05T13:44:42;97751.25;;;4.85;49.94
59194;BME280;44967;48.598;15.650;2023-03-05T13:47:14;97747.03;;;4.77;50.39
59194;BME280;44967;48.598;15.650;2023-03-05T13:49:42;97746.03;;;4.85;50.21
59194;BME280;44967;48.598;15.650;2023-03-05T13:52:09;97745.88;;;4.93;50.23
59194;BME280;44967;48.598;15.650;2023-03-05T13:54:36;97741.69;;;4.83;50.09
59194;BME280;44967;48.598;15.650;2023-03-05T13:57:06;97742.47;;;4.86;50.37
59194;BME280;44967;48.598;15.650;2023-03-05T13:59:36;97740.44;;;5.03;50.53
59194;BME280;44967;48.598;15.650;2023-03-05T14:02:15;97740.09;;;4.74;50.37
59194;BME280;44967;48.598;15.650;2023-03-05T14:04:43;97735.84;;;4.67;50.16
59194;BME280;44967;48.598;15.650;2023-03-05T14:09:48;97732.50;;;4.57;50.44
59194;BME280;44967;48.598;15.650;2023-03-05T14:12:38;97726.50;;;4.51;50.14
59194;BME280;44967;48.598;15.650;2023-03-05T14:15:20;97723.81;;;4.57;49.79
59194;BME280;44967;48.598;15.650;2023-03-05T14:17:47;97720.38;;;4.53;50.39
59194;BME280;44967;48.598;15.650;2023-03-05T14:22:45;97715.28;;;4.43;50.47
59194;BME280;44967;48.598;15.650;2023-03-05T14:25:35;97711.91;;;4.38;50.35
59194;BME280;44967;48.598;15.650;2023-03-05T14:28:27;97709.13;;;4.47;50.69
59194;BME280;44967;48.598;15.650;2023-03-05T14:30:54;97712.59;;;4.47;50.64
59194;BME280;44967;48.598;15.650;2023-03-05T14:33:26;97710.78;;;4.52;51.17
59194;BME280;44967;48.598;15.650;2023-03-05T14:35:53;97710.78;;;4.54;50.99
59194;BME280;44967;48.598;15.650;2023-03-05T14:38:28;97708.28;;;4.46;50.83
59194;BME280;44967;48.598;15.650;2023-03-05T14:40:55;97708.06;;;4.58;50.78